• Join FlightAware (Why Join?)
  • Login
  • US Flag 
06:11AM EDT


 

Airport Tracker/Info


-or-


 

Live Flight TrackerFlight Track Log ✈ OPT732 ✈ 30-Apr-2013 ✈ KMDW - KHOU

Flight Track Log - Related Links

Times and Time Zones

All times are in EDT time to prevent confusion due to time zone crossing. See the OPT732 flight status page for this flight to view local times or setup timezone preferences in your user account.

Time Position Orientation Groundspeed Altitude Reporting Facility
EDT Latitude Longitude Course Direction KTS MPH feet Rate Location/Type
04:24PM 41.7500 -87.7833 220° Southwest 173 199 2,800  Level Chicago TRACON
04:26PM 41.6892 -87.8528 220° Southwest 227 261 6,700 2,880 Climbing Chicago Center
04:27PM 41.6158 -87.8994 205° Southwest 246 283 10,200 2,580 Climbing Chicago Center
04:28PM 41.5489 -87.9439 206° Southwest 268 308 12,100 1,980 Climbing Chicago Center
04:29PM 41.4725 -87.9889 204° Southwest 294 338 14,300 2,220 Climbing Chicago Center
04:30PM 41.3856 -88.0406 204° Southwest 318 366 16,700 2,040 Climbing Chicago Center
04:31PM 41.2900 -88.0703 193° South 341 392 18,600 1,740 Climbing Chicago Center
04:32PM 41.1878 -88.1019 193° South 367 422 20,400 1,920 Climbing Chicago Center
04:33PM 41.0822 -88.1331 193° South 385 443 22,600 2,460 Climbing Chicago Center
04:34PM 40.9531 -88.1683 192° South 395 455 25,500 2,280 Climbing Chicago Center
04:35PM 40.8417 -88.2000 192° South 407 468 27,400 1,860 Climbing Chicago Center
04:36PM 40.7269 -88.2331 192° South 420 483 29,400 1,860 Climbing Chicago Center
04:37PM 40.6072 -88.2672 192° South 437 503 31,300 1,860 Climbing Chicago Center
04:38PM 40.4833 -88.3047 193° South 455 524 33,300 1,860 Climbing Chicago Center
04:39PM 40.3306 -88.3486 192° South 469 540 35,200 1,980 Climbing Chicago Center
04:40PM 40.2000 -88.3856 192° South 479 551 37,400 1,440 Climbing Chicago Center
04:41PM 40.0861 -88.4247 195° South 482 555 38,000 300 Climbing Kansas City Center
04:42PM 39.9603 -88.5064 206° Southwest 504 580 38,000  Level Kansas City Center
04:43PM 39.8339 -88.5917 207° Southwest 505 581 38,000  Level Kansas City Center
04:44PM 39.7097 -88.6747 207° Southwest 503 579 38,000 360 Level Kansas City Center
04:45PM 39.5906 -88.7600 209° Southwest 492 566 38,800 1,080 Climbing Kansas City Center
04:46PM 39.4733 -88.8483 210° Southwest 487 560 40,300 1,560 Climbing Kansas City Center
04:47PM 39.3403 -88.9500 211° Southwest 476 548 42,100 1,260 Climbing Kansas City Center
04:48PM 39.2278 -89.0322 210° Southwest 468 539 43,000 420 Climbing Kansas City Center
04:49PM 39.1106 -89.1197 210° Southwest 465 535 43,000  Level Kansas City Center
04:50PM 38.9872 -89.2103 210° Southwest 473 544 43,000  Level Kansas City Center
04:51PM 38.8733 -89.2947 210° Southwest 473 544 43,000  Level Kansas City Center
04:52PM 38.7597 -89.3781 210° Southwest 471 542 43,000  Level Kansas City Center
04:53PM 38.6358 -89.4681 210° Southwest 474 545 43,000  Level Kansas City Center
04:54PM 38.5203 -89.5517 210° Southwest 474 545 43,000  Level Kansas City Center
04:55PM 38.4031 -89.6356 209° Southwest 478 550 43,000  Level Kansas City Center
04:56PM 38.2781 -89.7258 210° Southwest 477 549 43,000  Level Kansas City Center
04:57PM 38.1628 -89.8089 210° Southwest 475 547 43,000  Level Kansas City Center
04:59PM 38.0381 -89.8975 209° Southwest 476 548 43,000  Level Kansas City Center
05:00PM 37.9211 -89.9806 209° Southwest 481 554 43,000  Level Kansas City Center
05:01PM 37.8217 -90.0528 210° Southwest 482 555 43,000  Level Kansas City Center
05:02PM 37.6789 -90.1542 209° Southwest 487 560 43,000  Level Kansas City Center
05:03PM 37.5608 -90.2375 209° Southwest 487 560 43,000  Level Kansas City Center
05:04PM 37.4411 -90.3228 209° Southwest 491 565 43,000  Level Kansas City Center
05:04PM 37.3422 -90.3958 210° Southwest 497 572 43,000  Level Memphis Center
05:05PM 37.2236 -90.4767 208° Southwest 497 572 43,000  Level Memphis Center
05:06PM 37.1047 -90.5572 208° Southwest 491 565 43,000  Level Memphis Center
05:07PM 36.9900 -90.6375 209° Southwest 486 559 43,000  Level Memphis Center
05:08PM 36.8772 -90.7147 209° Southwest 474 545 43,000  Level Memphis Center
05:09PM 36.7644 -90.7947 210° Southwest 474 545 43,000  Level Memphis Center
05:10PM 36.6536 -90.8717 209° Southwest 467 537 43,000  Level Memphis Center
05:11PM 36.5408 -90.9458 208° Southwest 467 537 43,000  Level Memphis Center
05:12PM 36.4300 -91.0225 209° Southwest 467 537 43,000  Level Memphis Center
05:13PM 36.3192 -91.0961 208° Southwest 461 531 43,000  Level Memphis Center
05:14PM 36.2103 -91.1725 210° Southwest 461 531 43,000  Level Memphis Center
05:15PM 36.0992 -91.2458 208° Southwest 461 531 43,000  Level Memphis Center
05:16PM 35.9881 -91.3189 208° Southwest 461 531 43,000  Level Memphis Center
05:17PM 35.8769 -91.3944 209° Southwest 461 531 43,000  Level Memphis Center
05:18PM 35.7806 -91.4572 208° Southwest 456 525 43,000  Level Memphis Center
05:19PM 35.6672 -91.5300 208° Southwest 456 525 43,000  Level Memphis Center
05:20PM 35.5561 -91.6075 210° Southwest 461 531 43,000  Level Memphis Center
05:21PM 35.4447 -91.6797 208° Southwest 461 531 43,000  Level Memphis Center
05:22PM 35.3314 -91.7542 208° Southwest 461 531 43,000  Level Memphis Center
05:23PM 35.2219 -91.8236 207° Southwest 455 524 43,000  Level Memphis Center
05:24PM 35.1106 -91.9003 209° Southwest 455 524 43,000  Level Memphis Center
05:25PM 34.9911 -91.9464 198° South 455 524 43,000  Level Memphis Center
05:26PM 34.8675 -91.9819 193° South 455 524 43,000  Level Memphis Center
05:27PM 34.7419 -92.0125 191° South 455 524 43,000  Level Memphis Center
05:28PM 34.6058 -92.0453 191° South 455 524 43,000  Level Memphis Center
05:29PM 34.4825 -92.0731 191° South 455 524 43,000  Level Memphis Center
05:30PM 34.3547 -92.1056 192° South 455 524 43,000  Level Memphis Center
05:33PM 34.1056 -92.1689 192° South 455 524 43,000  Level Fort Worth Center
05:34PM 33.9692 -92.2022 191° South 455 524 43,000  Level Fort Worth Center
05:35PM 33.8453 -92.2319 191° South 461 531 43,000  Level Fort Worth Center
05:36PM 33.7172 -92.2647 192° South 468 539 43,000  Level Fort Worth Center
05:37PM 33.5889 -92.2919 190° South 468 539 43,000  Level Fort Worth Center
05:38PM 33.4631 -92.3242 192° South 468 539 43,000  Level Fort Worth Center
05:39PM 33.3408 -92.3511 190° South 461 531 43,000  Level Fort Worth Center
05:40PM 33.2128 -92.3808 191° South 467 537 43,000  Level Fort Worth Center
05:41PM 33.0867 -92.4128 192° South 467 537 43,000  Level Fort Worth Center
05:42PM 32.9628 -92.4419 191° South 467 537 43,000  Level Fort Worth Center
05:43PM 32.8386 -92.4711 191° South 462 532 43,000  Level Fort Worth Center
05:44PM 32.7125 -92.5003 191° South 467 537 43,000  Level Fort Worth Center
05:45PM 32.5842 -92.5294 191° South 467 537 43,000  Level Fort Worth Center
05:47PM 32.2953 -92.6022 192° South 469 540 43,000  Level Houston Center
05:48PM 32.1667 -92.6311 191° South 472 543 43,000  Level Houston Center
05:49PM 32.0389 -92.6619 192° South 470 541 43,000  Level Houston Center
05:50PM 31.9253 -92.7267 206° Southwest 462 532 43,000  Level Houston Center
05:51PM 31.8361 -92.8311 225° Southwest 454 522 43,000  Level Houston Center
05:52PM 31.7453 -92.9342 224° Southwest 455 524 43,000  Level Houston Center
05:53PM 31.6367 -93.0556 224° Southwest 451 519 43,000  Level Houston Center
05:54PM 31.5467 -93.1575 224° Southwest 453 521 43,000  Level Houston Center
05:55PM 31.4556 -93.2578 223° Southwest 451 519 43,000  Level Houston Center
05:56PM 31.3639 -93.3622 224° Southwest 452 520 43,000  Level Houston Center
05:57PM 31.2742 -93.4614 223° Southwest 447 514 43,000 -300 Level Houston Center
05:58PM 31.1797 -93.5725 225° Southwest 416 479 42,400 -1,080 Descending Houston Center
05:59PM 31.1100 -93.6694 230° Southwest 394 453 40,800 -1,740 Descending Houston Center
06:00PM 31.0411 -93.7675 231° Southwest 392 451 38,900 -2,220 Descending Houston Center
06:01PM 30.9739 -93.8603 230° Southwest 379 436 36,300 -2,520 Descending Houston Center
06:02PM 30.9036 -93.9572 230° Southwest 390 449 33,700 -2,820 Descending Houston Center
06:03PM 30.8139 -94.0825 230° Southwest 419 482 30,500 -2,820 Descending Houston Center
06:04PM 30.7369 -94.1886 230° Southwest 428 493 27,900 -2,520 Descending Houston Center
06:06PM 30.6603 -94.2947 230° Southwest 431 496 25,300 -2,640 Descending Houston Center
06:06PM 30.6117 -94.3586 229° Southwest 426 490 23,800 -2,820 Descending Houston Center
06:06PM 30.5819 -94.3989 229° Southwest 419 482 22,700 -2,220 Descending Houston Center
06:07PM 30.5142 -94.5000 232° Southwest 391 450 20,700 -1,860 Descending Houston Center
06:09PM 30.4542 -94.5953 234° Southwest 358 412 18,900 -1,920 Descending Houston Center
06:10PM 30.3917 -94.6881 232° Southwest 347 399 16,800 -2,100 Descending Houston Center
06:11PM 30.3314 -94.7703 230° Southwest 334 384 14,400 -1,920 Descending Houston Center
06:12PM 30.2736 -94.8606 233° Southwest 334 384 13,000 -780 Descending Houston Center
06:13PM 30.2153 -94.9525 234° Southwest 340 391 13,000 -420 Level Houston Center
06:14PM 30.1600 -95.0344 232° Southwest 324 373 12,200 -1,140 Descending Houston Center
06:15PM 30.0875 -95.0917 214° Southwest 295 339 10,700 -1,080 Descending Houston Center
06:16PM 30.0147 -95.1225 200° South 271 312 10,000 -360 Descending Houston Center
06:17PM 29.9481 -95.1500 200° South 243 280 10,000 -720 Level Houston Center
06:18PM 29.8856 -95.1792 202° Southwest 245 282 8,600 -1,500 Descending Houston Center
06:19PM 29.8208 -95.2064 200° South 241 277 7,000 -840 Descending Houston Center
06:20PM 29.7606 -95.2331 201° Southwest 236 272 7,000  Level Houston Center
06:20PM 29.7489 -95.2331 180° South 241 277 7,000 -120 Level Houston Center
06:21PM 29.6931 -95.2075 158° South 239 275 6,900 -240 Descending Houston Center
06:21PM 29.6878 -95.2042 151° Southeast 241 277 6,800 -900 Descending Houston Center
06:22PM 29.6333 -95.1764 156° South 226 260 6,000 -900 Descending Houston Center
06:22PM 29.6211 -95.1706 157° South 238 274 5,900  Descending Houston Center
06:23PM 29.5789 -95.1997 211° Southwest 247 284 6,000  Climbing Houston Center
06:23PM 29.5700 -95.2100 225° Southwest 235 270 5,900  Descending Houston Center
06:24PM 29.5372 -95.2481 225° Southwest 200 230 6,000  Climbing Houston Center
06:24PM 29.5281 -95.2575 222° Southwest 216 249 5,900 -1,380 Descending Houston Center
06:25PM 29.4953 -95.2964 226° Southwest 206 237 4,600 -1,560 Descending Houston Center
06:25PM 29.4869 -95.3039 218° Southwest 208 239 4,300 -600 Descending Houston Center
06:26PM 29.4856 -95.3503 268° West 197 227 4,000 -300 Descending Houston Center
06:26PM 29.4911 -95.3586 307° West 199 229 4,000  Level Houston Center
06:27PM 29.5233 -95.3939 316° Northwest 181 208 4,000  Level Houston Center
06:27PM 29.5294 -95.3903 27° Northeast 191 220 4,000 -780 Level Houston Center
06:28PM 29.5650 -95.3672 29° Northeast 168 193 3,200 -1,080 Descending Houston Center
06:28PM 29.5761 -95.3569 39° Northeast 167 192 2,900 -1,380 Descending Houston Center
06:29PM 29.5992 -95.3294 46° Northeast 167 192 1,800 -1,680 Descending Houston Center
06:29PM 29.6094 -95.3181 44° Northeast 168 193 1,200 -1,380 Descending Houston Center
06:30PM 29.6278 -95.2972 45° Northeast 141 162 400 -1,080 Descending Houston Center
06:30PM 29.6378 -95.2872 41° Northeast 153 176 100 -840 Descending Houston Center